<?xml version="1.0" encoding="UTF-8" standalone="no" ?>
<gpx xmlns="http://www.topografix.com/GPX/1/1" xmlns:xsi="http://www.w3.org/2001/XMLSchema-instance" xsi:schemaLocation="http://www.topografix.com/GPX/1/1 http://www.topografix.com/GPX/1/1/gpx.xsd" version="1.1" creator="VisuGPX - https://www.visugpx.com">
  <metadata>
    <name>Saint-Céré : vue sur les 3 châteaux</name>
    <desc><![CDATA[

]]></desc>
  </metadata>
  <trk>
    <name><![CDATA[Les trois châteaux à Saint-Céré_1]]></name>
    <desc><![CDATA[

]]></desc>
    <extensions>
      <line xmlns="http://www.topografix.com/GPX/gpx_style/0/2">
        <color>0000FF</color>
        <width>4</width>
      </line>
    </extensions>
    <trkseg>
      <trkpt lat="44.85788" lon="1.89721">
        <ele>152.6</ele>
        <time>2024-08-30T10:15:45.000Z</time>
        <extensions>
          <visugpx:TrkExtension xmlns:visugpx="https://www.visugpx.com/editgpx/">
            <visugpx:node>6</visugpx:node>
            </visugpx:TrkExtension>
        </extensions>
      </trkpt>
      <trkpt lat="44.85795" lon="1.89737">
        <ele>152.2</ele>
        <time>2024-08-30T10:15:59.543Z</time>
      </trkpt>
      <trkpt lat="44.85788" lon="1.89721">
        <ele>152.6</ele>
        <time>2024-08-30T10:16:17.038Z</time>
      </trkpt>
      <trkpt lat="44.85785" lon="1.89716">
        <ele>152.6</ele>
        <time>2024-08-30T10:16:22.586Z</time>
      </trkpt>
      <trkpt lat="44.85783" lon="1.89711">
        <ele>152.5</ele>
        <time>2024-08-30T10:16:27.099Z</time>
      </trkpt>
      <trkpt lat="44.85783" lon="1.89692">
        <ele>152</ele>
        <time>2024-08-30T10:16:41.490Z</time>
      </trkpt>
      <trkpt lat="44.85784" lon="1.89679">
        <ele>152</ele>
        <time>2024-08-30T10:16:52.564Z</time>
      </trkpt>
      <trkpt lat="44.85782" lon="1.89667">
        <ele>152</ele>
        <time>2024-08-30T10:17:03.004Z</time>
      </trkpt>
      <trkpt lat="44.85781" lon="1.89663">
        <ele>152</ele>
        <time>2024-08-30T10:17:06.597Z</time>
      </trkpt>
      <trkpt lat="44.85779" lon="1.89661">
        <ele>152</ele>
        <time>2024-08-30T10:17:09.525Z</time>
      </trkpt>
      <trkpt lat="44.85778" lon="1.8966">
        <ele>152</ele>
        <time>2024-08-30T10:17:10.990Z</time>
      </trkpt>
      <trkpt lat="44.85777" lon="1.8966">
        <ele>152</ele>
        <time>2024-08-30T10:17:12.185Z</time>
      </trkpt>
      <trkpt lat="44.85776" lon="1.89659">
        <ele>152.1</ele>
        <time>2024-08-30T10:17:14.092Z</time>
      </trkpt>
      <trkpt lat="44.85775" lon="1.89659">
        <ele>152.1</ele>
        <time>2024-08-30T10:17:15.287Z</time>
      </trkpt>
      <trkpt lat="44.85772" lon="1.89659">
        <ele>152.2</ele>
        <time>2024-08-30T10:17:19.267Z</time>
      </trkpt>
      <trkpt lat="44.85771" lon="1.89658">
        <ele>152.2</ele>
        <time>2024-08-30T10:17:20.732Z</time>
      </trkpt>
      <trkpt lat="44.85759" lon="1.8965">
        <ele>152.7</ele>
        <time>2024-08-30T10:17:38.588Z</time>
      </trkpt>
      <trkpt lat="44.85756" lon="1.89648">
        <ele>152.8</ele>
        <time>2024-08-30T10:17:42.945Z</time>
      </trkpt>
      <trkpt lat="44.85726" lon="1.89628">
        <ele>153</ele>
        <time>2024-08-30T10:18:23.334Z</time>
      </trkpt>
      <trkpt lat="44.857" lon="1.89611">
        <ele>153</ele>
        <time>2024-08-30T10:18:57.572Z</time>
      </trkpt>
      <trkpt lat="44.85694" lon="1.89607">
        <ele>152.9</ele>
        <time>2024-08-30T10:19:05.144Z</time>
      </trkpt>
      <trkpt lat="44.85682" lon="1.896">
        <ele>152.8</ele>
        <time>2024-08-30T10:19:20.297Z</time>
      </trkpt>
      <trkpt lat="44.85672" lon="1.89592">
        <ele>152.9</ele>
        <time>2024-08-30T10:19:34.407Z</time>
      </trkpt>
      <trkpt lat="44.8567" lon="1.8959">
        <ele>152.9</ele>
        <time>2024-08-30T10:19:37.336Z</time>
        <extensions>
          <visugpx:TrkExtension xmlns:visugpx="https://www.visugpx.com/editgpx/">
            <visugpx:node>1</visugpx:node>
            </visugpx:TrkExtension>
        </extensions>
      </trkpt>
      <trkpt lat="44.85669" lon="1.89588">
        <ele>152.9</ele>
        <time>2024-08-30T10:19:39.408Z</time>
      </trkpt>
      <trkpt lat="44.85665" lon="1.89583">
        <ele>153</ele>
        <time>2024-08-30T10:19:46.177Z</time>
      </trkpt>
      <trkpt lat="44.8567" lon="1.89573">
        <ele>152.9</ele>
        <time>2024-08-30T10:19:56.182Z</time>
      </trkpt>
      <trkpt lat="44.85665" lon="1.8957">
        <ele>153</ele>
        <time>2024-08-30T10:20:03.056Z</time>
      </trkpt>
      <trkpt lat="44.85558" lon="1.89534">
        <ele>154</ele>
        <time>2024-08-30T10:22:18.231Z</time>
      </trkpt>
      <trkpt lat="44.85545" lon="1.8953">
        <ele>154</ele>
        <time>2024-08-30T10:22:34.128Z</time>
      </trkpt>
      <trkpt lat="44.85509" lon="1.89518">
        <ele>154.7</ele>
        <time>2024-08-30T10:23:21.007Z</time>
      </trkpt>
      <trkpt lat="44.8547" lon="1.89505">
        <ele>155</ele>
        <time>2024-08-30T10:24:10.007Z</time>
      </trkpt>
      <trkpt lat="44.85465" lon="1.89504">
        <ele>155</ele>
        <time>2024-08-30T10:24:16.040Z</time>
        <extensions>
          <visugpx:TrkExtension xmlns:visugpx="https://www.visugpx.com/editgpx/">
            <visugpx:node>2</visugpx:node>
            </visugpx:TrkExtension>
        </extensions>
      </trkpt>
      <trkpt lat="44.8547" lon="1.89505">
        <ele>155</ele>
        <time>2024-08-30T10:24:22.074Z</time>
      </trkpt>
      <trkpt lat="44.85474" lon="1.8947">
        <ele>154.9</ele>
        <time>2024-08-30T10:24:51.735Z</time>
      </trkpt>
      <trkpt lat="44.85476" lon="1.89458">
        <ele>154.9</ele>
        <time>2024-08-30T10:25:02.176Z</time>
      </trkpt>
      <trkpt lat="44.85478" lon="1.89444">
        <ele>154.8</ele>
        <time>2024-08-30T10:25:13.911Z</time>
      </trkpt>
      <trkpt lat="44.85481" lon="1.89432">
        <ele>154.7</ele>
        <time>2024-08-30T10:25:24.329Z</time>
      </trkpt>
      <trkpt lat="44.85486" lon="1.89422">
        <ele>154.5</ele>
        <time>2024-08-30T10:25:33.993Z</time>
      </trkpt>
      <trkpt lat="44.8549" lon="1.8941">
        <ele>154.5</ele>
        <time>2024-08-30T10:25:45.224Z</time>
      </trkpt>
      <trkpt lat="44.85494" lon="1.89389">
        <ele>155</ele>
        <time>2024-08-30T10:26:05.616Z</time>
      </trkpt>
      <trkpt lat="44.85496" lon="1.89382">
        <ele>155</ele>
        <time>2024-08-30T10:26:12.008Z</time>
      </trkpt>
      <trkpt lat="44.855" lon="1.89376">
        <ele>155</ele>
        <time>2024-08-30T10:26:18.984Z</time>
      </trkpt>
      <trkpt lat="44.85503" lon="1.89373">
        <ele>154.9</ele>
        <time>2024-08-30T10:26:23.031Z</time>
      </trkpt>
      <trkpt lat="44.85505" lon="1.89371">
        <ele>154.8</ele>
        <time>2024-08-30T10:26:25.622Z</time>
      </trkpt>
      <trkpt lat="44.85517" lon="1.89366">
        <ele>154.4</ele>
        <time>2024-08-30T10:26:39.196Z</time>
      </trkpt>
      <trkpt lat="44.85559" lon="1.89345">
        <ele>153.5</ele>
        <time>2024-08-30T10:27:29.264Z</time>
      </trkpt>
      <trkpt lat="44.85566" lon="1.8934">
        <ele>153.5</ele>
        <time>2024-08-30T10:27:38.638Z</time>
      </trkpt>
      <trkpt lat="44.85576" lon="1.89332">
        <ele>153.3</ele>
        <time>2024-08-30T10:27:51.664Z</time>
      </trkpt>
      <trkpt lat="44.85564" lon="1.89331">
        <ele>153.6</ele>
        <time>2024-08-30T10:28:07.192Z</time>
      </trkpt>
      <trkpt lat="44.85559" lon="1.89323">
        <ele>153.6</ele>
        <time>2024-08-30T10:28:16.225Z</time>
      </trkpt>
      <trkpt lat="44.85557" lon="1.89316">
        <ele>153.4</ele>
        <time>2024-08-30T10:28:21.937Z</time>
      </trkpt>
      <trkpt lat="44.85556" lon="1.89313">
        <ele>153.3</ele>
        <time>2024-08-30T10:28:24.408Z</time>
      </trkpt>
      <trkpt lat="44.85555" lon="1.89304">
        <ele>153</ele>
        <time>2024-08-30T10:28:31.159Z</time>
      </trkpt>
      <trkpt lat="44.85569" lon="1.89277">
        <ele>152.5</ele>
        <time>2024-08-30T10:28:57.733Z</time>
      </trkpt>
      <trkpt lat="44.85577" lon="1.89256">
        <ele>152</ele>
        <time>2024-08-30T10:29:16.197Z</time>
      </trkpt>
      <trkpt lat="44.85583" lon="1.8925">
        <ele>152</ele>
        <time>2024-08-30T10:29:24.984Z</time>
      </trkpt>
      <trkpt lat="44.85586" lon="1.89244">
        <ele>151.9</ele>
        <time>2024-08-30T10:29:30.850Z</time>
      </trkpt>
      <trkpt lat="44.85591" lon="1.89227">
        <ele>152</ele>
        <time>2024-08-30T10:29:46.811Z</time>
      </trkpt>
      <trkpt lat="44.85597" lon="1.89208">
        <ele>152</ele>
        <time>2024-08-30T10:30:04.428Z</time>
      </trkpt>
      <trkpt lat="44.85602" lon="1.8919">
        <ele>151.8</ele>
        <time>2024-08-30T10:30:20.088Z</time>
      </trkpt>
      <trkpt lat="44.85605" lon="1.89171">
        <ele>151.2</ele>
        <time>2024-08-30T10:30:34.560Z</time>
      </trkpt>
      <trkpt lat="44.85608" lon="1.89141">
        <ele>151</ele>
        <time>2024-08-30T10:30:59.499Z</time>
      </trkpt>
      <trkpt lat="44.8561" lon="1.89123">
        <ele>151</ele>
        <time>2024-08-30T10:31:14.930Z</time>
      </trkpt>
      <trkpt lat="44.85619" lon="1.89039">
        <ele>151</ele>
        <time>2024-08-30T10:32:26.880Z</time>
      </trkpt>
      <trkpt lat="44.85621" lon="1.89022">
        <ele>151</ele>
        <time>2024-08-30T10:32:41.475Z</time>
      </trkpt>
      <trkpt lat="44.85623" lon="1.89004">
        <ele>151</ele>
        <time>2024-08-30T10:32:56.906Z</time>
      </trkpt>
      <trkpt lat="44.85625" lon="1.88981">
        <ele>151</ele>
        <time>2024-08-30T10:33:16.531Z</time>
      </trkpt>
      <trkpt lat="44.85629" lon="1.88956">
        <ele>151</ele>
        <time>2024-08-30T10:33:38.237Z</time>
      </trkpt>
      <trkpt lat="44.85636" lon="1.88933">
        <ele>151</ele>
        <time>2024-08-30T10:33:59.436Z</time>
      </trkpt>
      <trkpt lat="44.85643" lon="1.88911">
        <ele>151.2</ele>
        <time>2024-08-30T10:34:20.614Z</time>
      </trkpt>
      <trkpt lat="44.85652" lon="1.88887">
        <ele>151.6</ele>
        <time>2024-08-30T10:34:45.148Z</time>
      </trkpt>
      <trkpt lat="44.85662" lon="1.88866">
        <ele>151.9</ele>
        <time>2024-08-30T10:35:07.719Z</time>
        <extensions>
          <visugpx:TrkExtension xmlns:visugpx="https://www.visugpx.com/editgpx/">
            <visugpx:node>3</visugpx:node>
            </visugpx:TrkExtension>
        </extensions>
      </trkpt>
      <trkpt lat="44.85662" lon="1.88865">
        <ele>151.9</ele>
        <time>2024-08-30T10:35:08.566Z</time>
      </trkpt>
      <trkpt lat="44.85665" lon="1.88859">
        <ele>152</ele>
        <time>2024-08-30T10:35:15.168Z</time>
        <extensions>
          <visugpx:TrkExtension xmlns:visugpx="https://www.visugpx.com/editgpx/">
            <visugpx:node>4</visugpx:node>
            </visugpx:TrkExtension>
        </extensions>
      </trkpt>
      <trkpt lat="44.85656" lon="1.88854">
        <ele>152</ele>
        <time>2024-08-30T10:35:26.724Z</time>
      </trkpt>
      <trkpt lat="44.85633" lon="1.88838">
        <ele>152</ele>
        <time>2024-08-30T10:35:57.363Z</time>
      </trkpt>
      <trkpt lat="44.8561" lon="1.88826">
        <ele>152.3</ele>
        <time>2024-08-30T10:36:27.794Z</time>
      </trkpt>
      <trkpt lat="44.85589" lon="1.88816">
        <ele>152.9</ele>
        <time>2024-08-30T10:36:56.617Z</time>
      </trkpt>
      <trkpt lat="44.85538" lon="1.88797">
        <ele>153</ele>
        <time>2024-08-30T10:38:00.008Z</time>
      </trkpt>
      <trkpt lat="44.85538" lon="1.88797">
        <ele>153</ele>
        <time>2024-08-30T10:38:00.008Z</time>
      </trkpt>
      <trkpt lat="44.85522" lon="1.88791">
        <ele>153</ele>
        <time>2024-08-30T10:38:19.788Z</time>
      </trkpt>
      <trkpt lat="44.8549" lon="1.88778">
        <ele>153.4</ele>
        <time>2024-08-30T10:39:01.083Z</time>
      </trkpt>
      <trkpt lat="44.85447" lon="1.88761">
        <ele>154</ele>
        <time>2024-08-30T10:39:56.709Z</time>
      </trkpt>
      <trkpt lat="44.85435" lon="1.88756">
        <ele>154.3</ele>
        <time>2024-08-30T10:40:12.822Z</time>
      </trkpt>
      <trkpt lat="44.85424" lon="1.88751">
        <ele>154.7</ele>
        <time>2024-08-30T10:40:28.217Z</time>
      </trkpt>
      <trkpt lat="44.85411" lon="1.88748">
        <ele>155.2</ele>
        <time>2024-08-30T10:40:45.956Z</time>
      </trkpt>
      <trkpt lat="44.85408" lon="1.88748">
        <ele>155.4</ele>
        <time>2024-08-30T10:40:50.396Z</time>
        <extensions>
          <visugpx:TrkExtension xmlns:visugpx="https://www.visugpx.com/editgpx/">
            <visugpx:node>5</visugpx:node>
            </visugpx:TrkExtension>
        </extensions>
      </trkpt>
      <trkpt lat="44.85383" lon="1.88746">
        <ele>159</ele>
        <time>2024-08-30T10:41:38.972Z</time>
      </trkpt>
      <trkpt lat="44.85361" lon="1.88745">
        <ele>161</ele>
        <time>2024-08-30T10:42:14.335Z</time>
      </trkpt>
      <trkpt lat="44.85328" lon="1.88731">
        <ele>163</ele>
        <time>2024-08-30T10:43:03.888Z</time>
      </trkpt>
      <trkpt lat="44.85268" lon="1.88709">
        <ele>166</ele>
        <time>2024-08-30T10:44:30.247Z</time>
      </trkpt>
      <trkpt lat="44.85212" lon="1.88683">
        <ele>168</ele>
        <time>2024-08-30T10:45:48.613Z</time>
      </trkpt>
      <trkpt lat="44.85171" lon="1.8866">
        <ele>168</ele>
        <time>2024-08-30T10:46:41.329Z</time>
      </trkpt>
      <trkpt lat="44.85116" lon="1.88608">
        <ele>171</ele>
        <time>2024-08-30T10:48:12.641Z</time>
      </trkpt>
      <trkpt lat="44.85075" lon="1.88555">
        <ele>173</ele>
        <time>2024-08-30T10:49:27.050Z</time>
      </trkpt>
      <trkpt lat="44.85069" lon="1.88553">
        <ele>174</ele>
        <time>2024-08-30T10:49:39.858Z</time>
      </trkpt>
      <trkpt lat="44.85019" lon="1.88519">
        <ele>177</ele>
        <time>2024-08-30T10:50:58.630Z</time>
      </trkpt>
      <trkpt lat="44.84985" lon="1.88489">
        <ele>179</ele>
        <time>2024-08-30T10:51:54.768Z</time>
      </trkpt>
      <trkpt lat="44.84957" lon="1.88463">
        <ele>180</ele>
        <time>2024-08-30T10:52:38.747Z</time>
      </trkpt>
      <trkpt lat="44.84928" lon="1.88449">
        <ele>182</ele>
        <time>2024-08-30T10:53:23.892Z</time>
      </trkpt>
      <trkpt lat="44.84893" lon="1.88435">
        <ele>183</ele>
        <time>2024-08-30T10:54:11.264Z</time>
      </trkpt>
      <trkpt lat="44.84859" lon="1.88423">
        <ele>183</ele>
        <time>2024-08-30T10:54:53.138Z</time>
      </trkpt>
      <trkpt lat="44.84816" lon="1.88416">
        <ele>183</ele>
        <time>2024-08-30T10:55:44.853Z</time>
      </trkpt>
      <trkpt lat="44.84786" lon="1.88435">
        <ele>185</ele>
        <time>2024-08-30T10:56:32.579Z</time>
      </trkpt>
      <trkpt lat="44.84764" lon="1.88447">
        <ele>187</ele>
        <time>2024-08-30T10:57:09.693Z</time>
      </trkpt>
      <trkpt lat="44.84738" lon="1.88457">
        <ele>190</ele>
        <time>2024-08-30T10:57:56.197Z</time>
      </trkpt>
      <trkpt lat="44.84707" lon="1.88451">
        <ele>195</ele>
        <time>2024-08-30T10:59:00.620Z</time>
      </trkpt>
      <trkpt lat="44.84677" lon="1.88432">
        <ele>197</ele>
        <time>2024-08-30T10:59:48.345Z</time>
      </trkpt>
      <trkpt lat="44.84651" lon="1.88398">
        <ele>198</ele>
        <time>2024-08-30T11:00:34.619Z</time>
      </trkpt>
      <trkpt lat="44.84626" lon="1.88382">
        <ele>201</ele>
        <time>2024-08-30T11:01:21.652Z</time>
      </trkpt>
      <trkpt lat="44.84609" lon="1.88373">
        <ele>203</ele>
        <time>2024-08-30T11:01:52.856Z</time>
      </trkpt>
      <trkpt lat="44.84559" lon="1.8837">
        <ele>209</ele>
        <time>2024-08-30T11:03:21.888Z</time>
      </trkpt>
      <trkpt lat="44.84525" lon="1.88368">
        <ele>213</ele>
        <time>2024-08-30T11:04:21.922Z</time>
      </trkpt>
      <trkpt lat="44.84488" lon="1.88351">
        <ele>215</ele>
        <time>2024-08-30T11:05:16.666Z</time>
      </trkpt>
      <trkpt lat="44.84471" lon="1.8834">
        <ele>215</ele>
        <time>2024-08-30T11:05:39.012Z</time>
      </trkpt>
      <trkpt lat="44.84462" lon="1.88326">
        <ele>215</ele>
        <time>2024-08-30T11:05:55.021Z</time>
      </trkpt>
      <trkpt lat="44.84431" lon="1.88258">
        <ele>215</ele>
        <time>2024-08-30T11:07:03.503Z</time>
      </trkpt>
      <trkpt lat="44.84393" lon="1.8825">
        <ele>217</ele>
        <time>2024-08-30T11:07:57.672Z</time>
      </trkpt>
      <trkpt lat="44.84376" lon="1.88238">
        <ele>217</ele>
        <time>2024-08-30T11:08:20.384Z</time>
      </trkpt>
      <trkpt lat="44.84301" lon="1.88175">
        <ele>217</ele>
        <time>2024-08-30T11:10:04.679Z</time>
      </trkpt>
      <trkpt lat="44.8427" lon="1.88117">
        <ele>213</ele>
        <time>2024-08-30T11:10:58.517Z</time>
      </trkpt>
      <trkpt lat="44.84237" lon="1.88068">
        <ele>209</ele>
        <time>2024-08-30T11:11:48.611Z</time>
      </trkpt>
      <trkpt lat="44.84218" lon="1.88048">
        <ele>208</ele>
        <time>2024-08-30T11:12:13.570Z</time>
      </trkpt>
      <trkpt lat="44.84197" lon="1.88037">
        <ele>208</ele>
        <time>2024-08-30T11:12:40.335Z</time>
      </trkpt>
      <trkpt lat="44.8415" lon="1.88015">
        <ele>209</ele>
        <time>2024-08-30T11:13:43.344Z</time>
      </trkpt>
      <trkpt lat="44.84132" lon="1.88001">
        <ele>210</ele>
        <time>2024-08-30T11:14:12.003Z</time>
      </trkpt>
      <trkpt lat="44.84125" lon="1.87985">
        <ele>211</ele>
        <time>2024-08-30T11:14:32.292Z</time>
      </trkpt>
      <trkpt lat="44.8411" lon="1.87956">
        <ele>213</ele>
        <time>2024-08-30T11:15:11.501Z</time>
      </trkpt>
      <trkpt lat="44.84093" lon="1.87935">
        <ele>215</ele>
        <time>2024-08-30T11:15:47.515Z</time>
      </trkpt>
      <trkpt lat="44.84069" lon="1.87906">
        <ele>217</ele>
        <time>2024-08-30T11:16:33.759Z</time>
      </trkpt>
      <trkpt lat="44.84045" lon="1.8789">
        <ele>218</ele>
        <time>2024-08-30T11:17:09.474Z</time>
      </trkpt>
      <trkpt lat="44.83954" lon="1.87826">
        <ele>228</ele>
        <time>2024-08-30T11:19:57.135Z</time>
      </trkpt>
      <trkpt lat="44.83926" lon="1.87794">
        <ele>233</ele>
        <time>2024-08-30T11:21:05.771Z</time>
      </trkpt>
      <trkpt lat="44.83911" lon="1.87741">
        <ele>237</ele>
        <time>2024-08-30T11:22:12.608Z</time>
      </trkpt>
      <trkpt lat="44.83897" lon="1.87656">
        <ele>241</ele>
        <time>2024-08-30T11:23:43.559Z</time>
      </trkpt>
      <trkpt lat="44.83891" lon="1.8758">
        <ele>241</ele>
        <time>2024-08-30T11:24:48.343Z</time>
      </trkpt>
      <trkpt lat="44.83862" lon="1.8745">
        <ele>248</ele>
        <time>2024-08-30T11:27:14.148Z</time>
      </trkpt>
      <trkpt lat="44.83885" lon="1.87303">
        <ele>253</ele>
        <time>2024-08-30T11:29:42.095Z</time>
      </trkpt>
      <trkpt lat="44.83892" lon="1.87166">
        <ele>254</ele>
        <time>2024-08-30T11:31:42.221Z</time>
      </trkpt>
      <trkpt lat="44.83842" lon="1.87091">
        <ele>257</ele>
        <time>2024-08-30T11:33:21.521Z</time>
      </trkpt>
      <trkpt lat="44.8383" lon="1.87042">
        <ele>256</ele>
        <time>2024-08-30T11:34:01.968Z</time>
      </trkpt>
      <trkpt lat="44.83821" lon="1.86995">
        <ele>257</ele>
        <time>2024-08-30T11:34:47.132Z</time>
      </trkpt>
      <trkpt lat="44.83828" lon="1.86976">
        <ele>257</ele>
        <time>2024-08-30T11:35:05.272Z</time>
      </trkpt>
      <trkpt lat="44.83839" lon="1.86979">
        <ele>257</ele>
        <time>2024-08-30T11:35:18.658Z</time>
      </trkpt>
      <trkpt lat="44.8386" lon="1.87005">
        <ele>260</ele>
        <time>2024-08-30T11:36:06.210Z</time>
      </trkpt>
      <trkpt lat="44.83876" lon="1.87037">
        <ele>260</ele>
        <time>2024-08-30T11:36:39.382Z</time>
      </trkpt>
      <trkpt lat="44.83896" lon="1.87058">
        <ele>259</ele>
        <time>2024-08-30T11:37:05.792Z</time>
      </trkpt>
      <trkpt lat="44.83911" lon="1.87075">
        <ele>256</ele>
        <time>2024-08-30T11:37:25.909Z</time>
      </trkpt>
      <trkpt lat="44.83905" lon="1.87056">
        <ele>259</ele>
        <time>2024-08-30T11:38:01.810Z</time>
      </trkpt>
      <trkpt lat="44.83894" lon="1.87004">
        <ele>267</ele>
        <time>2024-08-30T11:39:37.148Z</time>
      </trkpt>
      <trkpt lat="44.83889" lon="1.8696">
        <ele>271</ele>
        <time>2024-08-30T11:40:34.729Z</time>
      </trkpt>
      <trkpt lat="44.83894" lon="1.86908">
        <ele>277</ele>
        <time>2024-08-30T11:41:51.759Z</time>
      </trkpt>
      <trkpt lat="44.83912" lon="1.86856">
        <ele>282</ele>
        <time>2024-08-30T11:43:05.270Z</time>
      </trkpt>
      <trkpt lat="44.83932" lon="1.86784">
        <ele>288</ele>
        <time>2024-08-30T11:44:39.258Z</time>
      </trkpt>
      <trkpt lat="44.83943" lon="1.86731">
        <ele>292</ele>
        <time>2024-08-30T11:45:44.685Z</time>
      </trkpt>
      <trkpt lat="44.83942" lon="1.867">
        <ele>294</ele>
        <time>2024-08-30T11:46:20.041Z</time>
      </trkpt>
      <trkpt lat="44.83937" lon="1.86667">
        <ele>296</ele>
        <time>2024-08-30T11:46:57.536Z</time>
      </trkpt>
      <trkpt lat="44.83927" lon="1.86627">
        <ele>295</ele>
        <time>2024-08-30T11:47:30.039Z</time>
      </trkpt>
      <trkpt lat="44.83919" lon="1.86607">
        <ele>293</ele>
        <time>2024-08-30T11:47:47.061Z</time>
      </trkpt>
      <trkpt lat="44.83907" lon="1.86592">
        <ele>293</ele>
        <time>2024-08-30T11:48:06.219Z</time>
      </trkpt>
      <trkpt lat="44.83905" lon="1.86558">
        <ele>295</ele>
        <time>2024-08-30T11:48:44.009Z</time>
      </trkpt>
      <trkpt lat="44.83903" lon="1.86512">
        <ele>300</ele>
        <time>2024-08-30T11:49:49.607Z</time>
      </trkpt>
      <trkpt lat="44.83905" lon="1.86465">
        <ele>305</ele>
        <time>2024-08-30T11:50:55.823Z</time>
      </trkpt>
      <trkpt lat="44.83913" lon="1.86409">
        <ele>310</ele>
        <time>2024-08-30T11:52:08.807Z</time>
      </trkpt>
      <trkpt lat="44.83925" lon="1.86379">
        <ele>313</ele>
        <time>2024-08-30T11:52:52.717Z</time>
      </trkpt>
      <trkpt lat="44.83937" lon="1.86359">
        <ele>315</ele>
        <time>2024-08-30T11:53:24.363Z</time>
      </trkpt>
      <trkpt lat="44.83947" lon="1.86338">
        <ele>318</ele>
        <time>2024-08-30T11:54:02.344Z</time>
      </trkpt>
      <trkpt lat="44.83953" lon="1.86319">
        <ele>318</ele>
        <time>2024-08-30T11:54:19.964Z</time>
      </trkpt>
      <trkpt lat="44.83954" lon="1.86279">
        <ele>318</ele>
        <time>2024-08-30T11:54:53.872Z</time>
      </trkpt>
      <trkpt lat="44.8397" lon="1.86234">
        <ele>317</ele>
        <time>2024-08-30T11:55:33.054Z</time>
      </trkpt>
      <trkpt lat="44.83994" lon="1.86249">
        <ele>315</ele>
        <time>2024-08-30T11:56:00.497Z</time>
      </trkpt>
      <trkpt lat="44.84018" lon="1.86269">
        <ele>319</ele>
        <time>2024-08-30T11:56:54.520Z</time>
      </trkpt>
      <trkpt lat="44.84023" lon="1.86285">
        <ele>322</ele>
        <time>2024-08-30T11:57:29.733Z</time>
      </trkpt>
      <trkpt lat="44.84076" lon="1.8627">
        <ele>329</ele>
        <time>2024-08-30T11:59:09.278Z</time>
      </trkpt>
      <trkpt lat="44.84105" lon="1.86254">
        <ele>332</ele>
        <time>2024-08-30T12:00:00.266Z</time>
      </trkpt>
      <trkpt lat="44.84146" lon="1.86228">
        <ele>340</ele>
        <time>2024-08-30T12:01:39.410Z</time>
      </trkpt>
      <trkpt lat="44.84188" lon="1.86207">
        <ele>346</ele>
        <time>2024-08-30T12:03:03.018Z</time>
      </trkpt>
      <trkpt lat="44.84195" lon="1.86212">
        <ele>346</ele>
        <time>2024-08-30T12:03:12.393Z</time>
      </trkpt>
      <trkpt lat="44.84194" lon="1.86235">
        <ele>346</ele>
        <time>2024-08-30T12:03:31.914Z</time>
      </trkpt>
      <trkpt lat="44.84206" lon="1.86256">
        <ele>348</ele>
        <time>2024-08-30T12:04:04.140Z</time>
      </trkpt>
      <trkpt lat="44.84241" lon="1.86301">
        <ele>353</ele>
        <time>2024-08-30T12:05:24.228Z</time>
      </trkpt>
      <trkpt lat="44.84258" lon="1.86303">
        <ele>354</ele>
        <time>2024-08-30T12:05:48.806Z</time>
      </trkpt>
      <trkpt lat="44.84275" lon="1.86315">
        <ele>355</ele>
        <time>2024-08-30T12:06:15.656Z</time>
      </trkpt>
      <trkpt lat="44.84299" lon="1.8635">
        <ele>358</ele>
        <time>2024-08-30T12:07:10.370Z</time>
      </trkpt>
      <trkpt lat="44.84327" lon="1.86391">
        <ele>361</ele>
        <time>2024-08-30T12:08:11.658Z</time>
      </trkpt>
      <trkpt lat="44.84342" lon="1.86407">
        <ele>362</ele>
        <time>2024-08-30T12:08:38.271Z</time>
      </trkpt>
      <trkpt lat="44.8435" lon="1.86423">
        <ele>362</ele>
        <time>2024-08-30T12:08:54.856Z</time>
      </trkpt>
      <trkpt lat="44.84361" lon="1.86427">
        <ele>361</ele>
        <time>2024-08-30T12:09:06.732Z</time>
      </trkpt>
      <trkpt lat="44.84375" lon="1.86448">
        <ele>360</ele>
        <time>2024-08-30T12:09:28.097Z</time>
      </trkpt>
      <trkpt lat="44.84398" lon="1.86479">
        <ele>358</ele>
        <time>2024-08-30T12:10:01.356Z</time>
      </trkpt>
      <trkpt lat="44.84416" lon="1.86492">
        <ele>356</ele>
        <time>2024-08-30T12:10:22.497Z</time>
      </trkpt>
      <trkpt lat="44.84444" lon="1.86519">
        <ele>356</ele>
        <time>2024-08-30T12:11:03.021Z</time>
      </trkpt>
      <trkpt lat="44.84474" lon="1.86547">
        <ele>356</ele>
        <time>2024-08-30T12:11:46.001Z</time>
      </trkpt>
      <trkpt lat="44.84477" lon="1.86568">
        <ele>356</ele>
        <time>2024-08-30T12:12:04.147Z</time>
      </trkpt>
      <trkpt lat="44.84507" lon="1.86595">
        <ele>356</ele>
        <time>2024-08-30T12:12:46.666Z</time>
      </trkpt>
      <trkpt lat="44.84528" lon="1.86609">
        <ele>355</ele>
        <time>2024-08-30T12:13:11.057Z</time>
      </trkpt>
      <trkpt lat="44.84552" lon="1.86628">
        <ele>354</ele>
        <time>2024-08-30T12:13:40.532Z</time>
      </trkpt>
      <trkpt lat="44.84592" lon="1.86641">
        <ele>351</ele>
        <time>2024-08-30T12:14:23.444Z</time>
      </trkpt>
      <trkpt lat="44.84637" lon="1.86629">
        <ele>347</ele>
        <time>2024-08-30T12:15:11.321Z</time>
      </trkpt>
      <trkpt lat="44.84669" lon="1.86612">
        <ele>345</ele>
        <time>2024-08-30T12:15:47.068Z</time>
      </trkpt>
      <trkpt lat="44.84698" lon="1.86593">
        <ele>342</ele>
        <time>2024-08-30T12:16:20.496Z</time>
      </trkpt>
      <trkpt lat="44.84728" lon="1.86579">
        <ele>338</ele>
        <time>2024-08-30T12:16:53.530Z</time>
      </trkpt>
      <trkpt lat="44.84743" lon="1.86578">
        <ele>336</ele>
        <time>2024-08-30T12:17:09.229Z</time>
      </trkpt>
      <trkpt lat="44.84779" lon="1.8656">
        <ele>329</ele>
        <time>2024-08-30T12:17:49.158Z</time>
      </trkpt>
      <trkpt lat="44.84806" lon="1.86567">
        <ele>326</ele>
        <time>2024-08-30T12:18:17.857Z</time>
      </trkpt>
      <trkpt lat="44.8483" lon="1.86578">
        <ele>323</ele>
        <time>2024-08-30T12:18:44.238Z</time>
      </trkpt>
      <trkpt lat="44.84856" lon="1.86594">
        <ele>320</ele>
        <time>2024-08-30T12:19:13.893Z</time>
      </trkpt>
      <trkpt lat="44.84907" lon="1.86621">
        <ele>316</ele>
        <time>2024-08-30T12:20:10.840Z</time>
      </trkpt>
      <trkpt lat="44.84923" lon="1.86612">
        <ele>315</ele>
        <time>2024-08-30T12:20:28.848Z</time>
      </trkpt>
      <trkpt lat="44.84935" lon="1.86605">
        <ele>314</ele>
        <time>2024-08-30T12:20:42.423Z</time>
      </trkpt>
      <trkpt lat="44.84948" lon="1.86608">
        <ele>313</ele>
        <time>2024-08-30T12:20:56.194Z</time>
      </trkpt>
      <trkpt lat="44.84959" lon="1.86626">
        <ele>314</ele>
        <time>2024-08-30T12:21:20.526Z</time>
      </trkpt>
      <trkpt lat="44.84971" lon="1.86642">
        <ele>314</ele>
        <time>2024-08-30T12:21:40.255Z</time>
      </trkpt>
      <trkpt lat="44.84996" lon="1.86643">
        <ele>313</ele>
        <time>2024-08-30T12:22:06.754Z</time>
      </trkpt>
      <trkpt lat="44.84999" lon="1.86656">
        <ele>313</ele>
        <time>2024-08-30T12:22:18.334Z</time>
      </trkpt>
      <trkpt lat="44.8502" lon="1.86671">
        <ele>311</ele>
        <time>2024-08-30T12:22:42.942Z</time>
      </trkpt>
      <trkpt lat="44.85029" lon="1.86676">
        <ele>309</ele>
        <time>2024-08-30T12:22:53.054Z</time>
      </trkpt>
      <trkpt lat="44.85044" lon="1.86679">
        <ele>307</ele>
        <time>2024-08-30T12:23:08.892Z</time>
      </trkpt>
      <trkpt lat="44.85094" lon="1.86713">
        <ele>300</ele>
        <time>2024-08-30T12:24:06.919Z</time>
      </trkpt>
      <trkpt lat="44.85132" lon="1.86722">
        <ele>292</ele>
        <time>2024-08-30T12:24:47.201Z</time>
      </trkpt>
      <trkpt lat="44.85191" lon="1.86757">
        <ele>286</ele>
        <time>2024-08-30T12:25:54.112Z</time>
      </trkpt>
      <trkpt lat="44.85226" lon="1.86772">
        <ele>280</ele>
        <time>2024-08-30T12:26:32.353Z</time>
      </trkpt>
      <trkpt lat="44.85243" lon="1.86774">
        <ele>279</ele>
        <time>2024-08-30T12:26:50.186Z</time>
      </trkpt>
      <trkpt lat="44.85259" lon="1.86769">
        <ele>275</ele>
        <time>2024-08-30T12:27:07.318Z</time>
      </trkpt>
      <trkpt lat="44.85272" lon="1.86798">
        <ele>272</ele>
        <time>2024-08-30T12:27:32.747Z</time>
      </trkpt>
      <trkpt lat="44.85292" lon="1.86805">
        <ele>266</ele>
        <time>2024-08-30T12:27:54.289Z</time>
      </trkpt>
      <trkpt lat="44.85308" lon="1.86801">
        <ele>261</ele>
        <time>2024-08-30T12:28:11.276Z</time>
      </trkpt>
      <trkpt lat="44.85317" lon="1.86825">
        <ele>260</ele>
        <time>2024-08-30T12:28:31.398Z</time>
      </trkpt>
      <trkpt lat="44.85289" lon="1.86841">
        <ele>267</ele>
        <time>2024-08-30T12:29:53.707Z</time>
      </trkpt>
      <trkpt lat="44.85281" lon="1.86836">
        <ele>270</ele>
        <time>2024-08-30T12:30:31.460Z</time>
      </trkpt>
      <trkpt lat="44.85276" lon="1.8682">
        <ele>272</ele>
        <time>2024-08-30T12:30:57.131Z</time>
      </trkpt>
      <trkpt lat="44.85267" lon="1.86816">
        <ele>274</ele>
        <time>2024-08-30T12:31:20.887Z</time>
      </trkpt>
      <trkpt lat="44.85252" lon="1.86818">
        <ele>279</ele>
        <time>2024-08-30T12:32:23.006Z</time>
      </trkpt>
      <trkpt lat="44.8526" lon="1.86834">
        <ele>277</ele>
        <time>2024-08-30T12:32:37.516Z</time>
      </trkpt>
      <trkpt lat="44.85261" lon="1.86843">
        <ele>274</ele>
        <time>2024-08-30T12:32:44.268Z</time>
      </trkpt>
      <trkpt lat="44.85254" lon="1.86845">
        <ele>276</ele>
        <time>2024-08-30T12:33:07.992Z</time>
      </trkpt>
      <trkpt lat="44.85261" lon="1.86849">
        <ele>273</ele>
        <time>2024-08-30T12:33:15.887Z</time>
      </trkpt>
      <trkpt lat="44.85266" lon="1.8685">
        <ele>271</ele>
        <time>2024-08-30T12:33:21.167Z</time>
      </trkpt>
      <trkpt lat="44.85281" lon="1.86851">
        <ele>267</ele>
        <time>2024-08-30T12:33:36.865Z</time>
      </trkpt>
      <trkpt lat="44.85287" lon="1.86859">
        <ele>263</ele>
        <time>2024-08-30T12:33:45.496Z</time>
      </trkpt>
      <trkpt lat="44.85304" lon="1.86855">
        <ele>260</ele>
        <time>2024-08-30T12:34:03.514Z</time>
      </trkpt>
      <trkpt lat="44.85315" lon="1.86853">
        <ele>258</ele>
        <time>2024-08-30T12:34:15.108Z</time>
      </trkpt>
      <trkpt lat="44.85303" lon="1.86865">
        <ele>258</ele>
        <time>2024-08-30T12:34:32.683Z</time>
      </trkpt>
      <trkpt lat="44.85287" lon="1.86874">
        <ele>260</ele>
        <time>2024-08-30T12:35:02.916Z</time>
      </trkpt>
      <trkpt lat="44.85291" lon="1.86888">
        <ele>256</ele>
        <time>2024-08-30T12:35:14.102Z</time>
      </trkpt>
      <trkpt lat="44.85305" lon="1.86891">
        <ele>252</ele>
        <time>2024-08-30T12:35:28.906Z</time>
      </trkpt>
      <trkpt lat="44.8534" lon="1.86889">
        <ele>245</ele>
        <time>2024-08-30T12:36:05.525Z</time>
      </trkpt>
      <trkpt lat="44.85348" lon="1.86885">
        <ele>243</ele>
        <time>2024-08-30T12:36:14.398Z</time>
      </trkpt>
      <trkpt lat="44.85355" lon="1.86872">
        <ele>243</ele>
        <time>2024-08-30T12:36:28.225Z</time>
      </trkpt>
      <trkpt lat="44.85355" lon="1.86887">
        <ele>241</ele>
        <time>2024-08-30T12:36:39.341Z</time>
      </trkpt>
      <trkpt lat="44.8535" lon="1.86909">
        <ele>239</ele>
        <time>2024-08-30T12:36:56.463Z</time>
      </trkpt>
      <trkpt lat="44.85361" lon="1.8695">
        <ele>228</ele>
        <time>2024-08-30T12:37:28.951Z</time>
      </trkpt>
      <trkpt lat="44.85368" lon="1.86975">
        <ele>222</ele>
        <time>2024-08-30T12:37:48.872Z</time>
      </trkpt>
      <trkpt lat="44.85375" lon="1.87001">
        <ele>217</ele>
        <time>2024-08-30T12:38:09.483Z</time>
      </trkpt>
      <trkpt lat="44.85398" lon="1.86992">
        <ele>215</ele>
        <time>2024-08-30T12:38:34.435Z</time>
      </trkpt>
      <trkpt lat="44.85415" lon="1.86994">
        <ele>213</ele>
        <time>2024-08-30T12:38:52.269Z</time>
      </trkpt>
      <trkpt lat="44.85433" lon="1.87007">
        <ele>208</ele>
        <time>2024-08-30T12:39:13.409Z</time>
      </trkpt>
      <trkpt lat="44.85446" lon="1.87024">
        <ele>204</ele>
        <time>2024-08-30T12:39:31.940Z</time>
      </trkpt>
      <trkpt lat="44.85467" lon="1.87049">
        <ele>198</ele>
        <time>2024-08-30T12:40:00.667Z</time>
      </trkpt>
      <trkpt lat="44.8549" lon="1.87074">
        <ele>193</ele>
        <time>2024-08-30T12:40:31.021Z</time>
      </trkpt>
      <trkpt lat="44.85512" lon="1.87086">
        <ele>190</ele>
        <time>2024-08-30T12:40:55.680Z</time>
      </trkpt>
      <trkpt lat="44.8553" lon="1.87082">
        <ele>188</ele>
        <time>2024-08-30T12:41:14.729Z</time>
      </trkpt>
      <trkpt lat="44.85558" lon="1.87069">
        <ele>186</ele>
        <time>2024-08-30T12:41:45.545Z</time>
      </trkpt>
      <trkpt lat="44.85598" lon="1.87042">
        <ele>182</ele>
        <time>2024-08-30T12:42:31.902Z</time>
      </trkpt>
      <trkpt lat="44.85634" lon="1.87031">
        <ele>177</ele>
        <time>2024-08-30T12:43:10.409Z</time>
      </trkpt>
      <trkpt lat="44.85677" lon="1.87033">
        <ele>172</ele>
        <time>2024-08-30T12:43:55.386Z</time>
      </trkpt>
      <trkpt lat="44.85672" lon="1.87073">
        <ele>170</ele>
        <time>2024-08-30T12:44:25.486Z</time>
      </trkpt>
      <trkpt lat="44.8567" lon="1.87108">
        <ele>167</ele>
        <time>2024-08-30T12:44:51.507Z</time>
      </trkpt>
      <trkpt lat="44.85678" lon="1.87128">
        <ele>164</ele>
        <time>2024-08-30T12:45:08.525Z</time>
      </trkpt>
      <trkpt lat="44.85691" lon="1.8715">
        <ele>161</ele>
        <time>2024-08-30T12:45:29.749Z</time>
      </trkpt>
      <trkpt lat="44.857" lon="1.8717">
        <ele>158</ele>
        <time>2024-08-30T12:45:47.305Z</time>
      </trkpt>
      <trkpt lat="44.85652" lon="1.87283">
        <ele>154</ele>
        <time>2024-08-30T12:47:25.427Z</time>
      </trkpt>
      <trkpt lat="44.85594" lon="1.87419">
        <ele>153</ele>
        <time>2024-08-30T12:49:36.240Z</time>
      </trkpt>
      <trkpt lat="44.85581" lon="1.8746">
        <ele>153</ele>
        <time>2024-08-30T12:50:14.279Z</time>
      </trkpt>
      <trkpt lat="44.8558" lon="1.87508">
        <ele>152</ele>
        <time>2024-08-30T12:50:51.494Z</time>
      </trkpt>
      <trkpt lat="44.8557" lon="1.87735">
        <ele>153</ele>
        <time>2024-08-30T12:54:07.848Z</time>
      </trkpt>
      <trkpt lat="44.85564" lon="1.87825">
        <ele>155</ele>
        <time>2024-08-30T12:55:32.289Z</time>
        <extensions>
          <visugpx:TrkExtension xmlns:visugpx="https://www.visugpx.com/editgpx/">
            <visugpx:node>1</visugpx:node>
            </visugpx:TrkExtension>
        </extensions>
      </trkpt>
      <trkpt lat="44.85561" lon="1.87826">
        <ele>155.6</ele>
        <time>2024-08-30T12:55:39.539Z</time>
      </trkpt>
      <trkpt lat="44.85553" lon="1.87844">
        <ele>155.6</ele>
        <time>2024-08-30T12:55:57.533Z</time>
      </trkpt>
      <trkpt lat="44.85546" lon="1.8786">
        <ele>155.8</ele>
        <time>2024-08-30T12:56:14.217Z</time>
      </trkpt>
      <trkpt lat="44.85545" lon="1.87864">
        <ele>155.9</ele>
        <time>2024-08-30T12:56:18.205Z</time>
      </trkpt>
      <trkpt lat="44.85541" lon="1.87876">
        <ele>156.6</ele>
        <time>2024-08-30T12:56:32.485Z</time>
      </trkpt>
      <trkpt lat="44.85537" lon="1.87892">
        <ele>157.2</ele>
        <time>2024-08-30T12:56:49.321Z</time>
      </trkpt>
      <trkpt lat="44.85536" lon="1.87907">
        <ele>156.6</ele>
        <time>2024-08-30T12:57:00.487Z</time>
      </trkpt>
      <trkpt lat="44.85535" lon="1.87925">
        <ele>156.1</ele>
        <time>2024-08-30T12:57:14.085Z</time>
      </trkpt>
      <trkpt lat="44.85535" lon="1.87951">
        <ele>156</ele>
        <time>2024-08-30T12:57:35.742Z</time>
      </trkpt>
      <trkpt lat="44.85537" lon="1.87988">
        <ele>155.3</ele>
        <time>2024-08-30T12:58:04.736Z</time>
      </trkpt>
      <trkpt lat="44.85539" lon="1.88028">
        <ele>155.8</ele>
        <time>2024-08-30T12:58:40.609Z</time>
      </trkpt>
      <trkpt lat="44.85541" lon="1.8806">
        <ele>155.6</ele>
        <time>2024-08-30T12:59:07.095Z</time>
      </trkpt>
      <trkpt lat="44.85541" lon="1.88092">
        <ele>155.6</ele>
        <time>2024-08-30T12:59:34.197Z</time>
      </trkpt>
      <trkpt lat="44.85541" lon="1.88117">
        <ele>155.7</ele>
        <time>2024-08-30T12:59:55.743Z</time>
      </trkpt>
      <trkpt lat="44.85539" lon="1.88153">
        <ele>156.4</ele>
        <time>2024-08-30T13:00:29.061Z</time>
      </trkpt>
      <trkpt lat="44.85534" lon="1.88189">
        <ele>157.1</ele>
        <time>2024-08-30T13:01:02.862Z</time>
      </trkpt>
      <trkpt lat="44.85533" lon="1.88191">
        <ele>157.2</ele>
        <time>2024-08-30T13:01:05.353Z</time>
      </trkpt>
      <trkpt lat="44.85527" lon="1.88232">
        <ele>157.1</ele>
        <time>2024-08-30T13:01:40.445Z</time>
      </trkpt>
      <trkpt lat="44.85523" lon="1.88259">
        <ele>157.3</ele>
        <time>2024-08-30T13:02:04.559Z</time>
      </trkpt>
      <trkpt lat="44.85522" lon="1.88262">
        <ele>157.3</ele>
        <time>2024-08-30T13:02:07.366Z</time>
      </trkpt>
      <trkpt lat="44.85522" lon="1.88273">
        <ele>156.8</ele>
        <time>2024-08-30T13:02:15.518Z</time>
      </trkpt>
      <trkpt lat="44.85522" lon="1.8828">
        <ele>156.6</ele>
        <time>2024-08-30T13:02:20.771Z</time>
      </trkpt>
      <trkpt lat="44.85521" lon="1.88291">
        <ele>156.6</ele>
        <time>2024-08-30T13:02:30.164Z</time>
      </trkpt>
      <trkpt lat="44.85522" lon="1.88301">
        <ele>156.5</ele>
        <time>2024-08-30T13:02:38.360Z</time>
      </trkpt>
      <trkpt lat="44.85522" lon="1.88314">
        <ele>156.4</ele>
        <time>2024-08-30T13:02:49.011Z</time>
      </trkpt>
      <trkpt lat="44.85524" lon="1.88325">
        <ele>156.2</ele>
        <time>2024-08-30T13:02:57.931Z</time>
      </trkpt>
      <trkpt lat="44.85526" lon="1.88336">
        <ele>156.1</ele>
        <time>2024-08-30T13:03:07.191Z</time>
      </trkpt>
      <trkpt lat="44.85531" lon="1.88351">
        <ele>155.9</ele>
        <time>2024-08-30T13:03:20.521Z</time>
      </trkpt>
      <trkpt lat="44.85546" lon="1.88378">
        <ele>155.3</ele>
        <time>2024-08-30T13:03:47.480Z</time>
      </trkpt>
      <trkpt lat="44.85583" lon="1.88424">
        <ele>154</ele>
        <time>2024-08-30T13:04:41.882Z</time>
      </trkpt>
      <trkpt lat="44.85597" lon="1.88444">
        <ele>153.5</ele>
        <time>2024-08-30T13:05:03.944Z</time>
      </trkpt>
      <trkpt lat="44.85601" lon="1.88453">
        <ele>153.4</ele>
        <time>2024-08-30T13:05:12.583Z</time>
      </trkpt>
      <trkpt lat="44.85604" lon="1.88459">
        <ele>153.3</ele>
        <time>2024-08-30T13:05:18.449Z</time>
        <extensions>
          <visugpx:TrkExtension xmlns:visugpx="https://www.visugpx.com/editgpx/">
            <visugpx:node>2</visugpx:node>
            </visugpx:TrkExtension>
        </extensions>
      </trkpt>
      <trkpt lat="44.85605" lon="1.8846">
        <ele>153.2</ele>
        <time>2024-08-30T13:05:19.730Z</time>
      </trkpt>
      <trkpt lat="44.85608" lon="1.88469">
        <ele>153.1</ele>
        <time>2024-08-30T13:05:27.796Z</time>
      </trkpt>
      <trkpt lat="44.85619" lon="1.88508">
        <ele>153.5</ele>
        <time>2024-08-30T13:06:04.860Z</time>
      </trkpt>
      <trkpt lat="44.85624" lon="1.88525">
        <ele>153.1</ele>
        <time>2024-08-30T13:06:19.069Z</time>
      </trkpt>
      <trkpt lat="44.85635" lon="1.88564">
        <ele>152.4</ele>
        <time>2024-08-30T13:06:52.169Z</time>
      </trkpt>
      <trkpt lat="44.85637" lon="1.88572">
        <ele>152.6</ele>
        <time>2024-08-30T13:07:00.145Z</time>
      </trkpt>
      <trkpt lat="44.85638" lon="1.88576">
        <ele>152.7</ele>
        <time>2024-08-30T13:07:04.134Z</time>
      </trkpt>
      <trkpt lat="44.85643" lon="1.88589">
        <ele>152.9</ele>
        <time>2024-08-30T13:07:17.427Z</time>
      </trkpt>
      <trkpt lat="44.85651" lon="1.88609">
        <ele>152.6</ele>
        <time>2024-08-30T13:07:35.815Z</time>
      </trkpt>
      <trkpt lat="44.85656" lon="1.8862">
        <ele>152.6</ele>
        <time>2024-08-30T13:07:46.882Z</time>
      </trkpt>
      <trkpt lat="44.8566" lon="1.88626">
        <ele>152.6</ele>
        <time>2024-08-30T13:07:53.858Z</time>
      </trkpt>
      <trkpt lat="44.85669" lon="1.8864">
        <ele>152.9</ele>
        <time>2024-08-30T13:08:11.023Z</time>
      </trkpt>
      <trkpt lat="44.85678" lon="1.88655">
        <ele>152.6</ele>
        <time>2024-08-30T13:08:26.613Z</time>
      </trkpt>
      <trkpt lat="44.85684" lon="1.88666">
        <ele>152.4</ele>
        <time>2024-08-30T13:08:37.663Z</time>
      </trkpt>
      <trkpt lat="44.85688" lon="1.88675">
        <ele>152.5</ele>
        <time>2024-08-30T13:08:47.039Z</time>
      </trkpt>
      <trkpt lat="44.8569" lon="1.88681">
        <ele>152.6</ele>
        <time>2024-08-30T13:08:53.039Z</time>
      </trkpt>
      <trkpt lat="44.85691" lon="1.88687">
        <ele>152.8</ele>
        <time>2024-08-30T13:08:59.074Z</time>
      </trkpt>
      <trkpt lat="44.85691" lon="1.88693">
        <ele>153</ele>
        <time>2024-08-30T13:09:04.972Z</time>
      </trkpt>
      <trkpt lat="44.8569" lon="1.88701">
        <ele>153</ele>
        <time>2024-08-30T13:09:11.852Z</time>
      </trkpt>
      <trkpt lat="44.85689" lon="1.88708">
        <ele>153</ele>
        <time>2024-08-30T13:09:17.900Z</time>
      </trkpt>
      <trkpt lat="44.85689" lon="1.88714">
        <ele>153</ele>
        <time>2024-08-30T13:09:22.981Z</time>
      </trkpt>
      <trkpt lat="44.85689" lon="1.88715">
        <ele>153</ele>
        <time>2024-08-30T13:09:23.828Z</time>
      </trkpt>
      <trkpt lat="44.85689" lon="1.88718">
        <ele>153</ele>
        <time>2024-08-30T13:09:26.369Z</time>
      </trkpt>
      <trkpt lat="44.8569" lon="1.88724">
        <ele>152.9</ele>
        <time>2024-08-30T13:09:31.239Z</time>
      </trkpt>
      <trkpt lat="44.85692" lon="1.88729">
        <ele>152.8</ele>
        <time>2024-08-30T13:09:35.752Z</time>
      </trkpt>
      <trkpt lat="44.8571" lon="1.88752">
        <ele>152</ele>
        <time>2024-08-30T13:10:02.023Z</time>
      </trkpt>
      <trkpt lat="44.85716" lon="1.88759">
        <ele>152</ele>
        <time>2024-08-30T13:10:11.326Z</time>
      </trkpt>
      <trkpt lat="44.85721" lon="1.88767">
        <ele>152</ele>
        <time>2024-08-30T13:10:20.359Z</time>
      </trkpt>
      <trkpt lat="44.85717" lon="1.88771">
        <ele>152</ele>
        <time>2024-08-30T13:10:26.217Z</time>
        <extensions>
          <visugpx:TrkExtension xmlns:visugpx="https://www.visugpx.com/editgpx/">
            <visugpx:node>3</visugpx:node>
            </visugpx:TrkExtension>
        </extensions>
      </trkpt>
      <trkpt lat="44.85717" lon="1.88771">
        <ele>152</ele>
        <time>2024-08-30T13:10:26.217Z</time>
      </trkpt>
      <trkpt lat="44.85721" lon="1.88767">
        <ele>152</ele>
        <time>2024-08-30T13:10:32.074Z</time>
      </trkpt>
      <trkpt lat="44.8573" lon="1.88776">
        <ele>152</ele>
        <time>2024-08-30T13:10:45.255Z</time>
      </trkpt>
      <trkpt lat="44.85734" lon="1.88782">
        <ele>152</ele>
        <time>2024-08-30T13:10:52.230Z</time>
      </trkpt>
      <trkpt lat="44.85737" lon="1.88785">
        <ele>152</ele>
        <time>2024-08-30T13:10:56.624Z</time>
      </trkpt>
      <trkpt lat="44.8575" lon="1.888">
        <ele>152</ele>
        <time>2024-08-30T13:11:16.689Z</time>
      </trkpt>
      <trkpt lat="44.85762" lon="1.88812">
        <ele>151.5</ele>
        <time>2024-08-30T13:11:32.551Z</time>
      </trkpt>
      <trkpt lat="44.85767" lon="1.88818">
        <ele>151.5</ele>
        <time>2024-08-30T13:11:40.394Z</time>
      </trkpt>
      <trkpt lat="44.85772" lon="1.88822">
        <ele>151.6</ele>
        <time>2024-08-30T13:11:47.643Z</time>
      </trkpt>
      <trkpt lat="44.85769" lon="1.88832">
        <ele>151.7</ele>
        <time>2024-08-30T13:11:57.218Z</time>
      </trkpt>
      <trkpt lat="44.85769" lon="1.88837">
        <ele>151.6</ele>
        <time>2024-08-30T13:12:01.106Z</time>
      </trkpt>
      <trkpt lat="44.8577" lon="1.88843">
        <ele>151.6</ele>
        <time>2024-08-30T13:12:06.326Z</time>
      </trkpt>
      <trkpt lat="44.85781" lon="1.88863">
        <ele>151</ele>
        <time>2024-08-30T13:12:25.709Z</time>
      </trkpt>
      <trkpt lat="44.85828" lon="1.88933">
        <ele>150.2</ele>
        <time>2024-08-30T13:13:44.495Z</time>
      </trkpt>
      <trkpt lat="44.85853" lon="1.8897">
        <ele>150.3</ele>
        <time>2024-08-30T13:14:28.156Z</time>
      </trkpt>
      <trkpt lat="44.8587" lon="1.88996">
        <ele>149.3</ele>
        <time>2024-08-30T13:14:54.730Z</time>
      </trkpt>
      <trkpt lat="44.85868" lon="1.89004">
        <ele>149.4</ele>
        <time>2024-08-30T13:15:02.295Z</time>
        <extensions>
          <visugpx:TrkExtension xmlns:visugpx="https://www.visugpx.com/editgpx/">
            <visugpx:node>4</visugpx:node>
            </visugpx:TrkExtension>
        </extensions>
      </trkpt>
      <trkpt lat="44.85865" lon="1.8901">
        <ele>149.5</ele>
        <time>2024-08-30T13:15:08.897Z</time>
      </trkpt>
      <trkpt lat="44.85865" lon="1.89011">
        <ele>149.4</ele>
        <time>2024-08-30T13:15:09.638Z</time>
      </trkpt>
      <trkpt lat="44.85852" lon="1.89054">
        <ele>148.1</ele>
        <time>2024-08-30T13:15:44.826Z</time>
      </trkpt>
      <trkpt lat="44.85838" lon="1.891">
        <ele>149.9</ele>
        <time>2024-08-30T13:16:34.638Z</time>
      </trkpt>
      <trkpt lat="44.85829" lon="1.8914">
        <ele>148.5</ele>
        <time>2024-08-30T13:17:05.737Z</time>
      </trkpt>
      <trkpt lat="44.85826" lon="1.89151">
        <ele>148.8</ele>
        <time>2024-08-30T13:17:16.913Z</time>
      </trkpt>
      <trkpt lat="44.85825" lon="1.89156">
        <ele>148.9</ele>
        <time>2024-08-30T13:17:21.703Z</time>
      </trkpt>
      <trkpt lat="44.85819" lon="1.89191">
        <ele>149.5</ele>
        <time>2024-08-30T13:17:54.523Z</time>
      </trkpt>
      <trkpt lat="44.85817" lon="1.89207">
        <ele>150.4</ele>
        <time>2024-08-30T13:18:12.238Z</time>
      </trkpt>
      <trkpt lat="44.85813" lon="1.89238">
        <ele>151</ele>
        <time>2024-08-30T13:18:41.265Z</time>
      </trkpt>
      <trkpt lat="44.85809" lon="1.89264">
        <ele>150.9</ele>
        <time>2024-08-30T13:19:03.433Z</time>
      </trkpt>
      <trkpt lat="44.85808" lon="1.89274">
        <ele>150.9</ele>
        <time>2024-08-30T13:19:11.986Z</time>
      </trkpt>
      <trkpt lat="44.85807" lon="1.89296">
        <ele>150.9</ele>
        <time>2024-08-30T13:19:30.656Z</time>
      </trkpt>
      <trkpt lat="44.85806" lon="1.89307">
        <ele>151</ele>
        <time>2024-08-30T13:19:40.427Z</time>
      </trkpt>
      <trkpt lat="44.85806" lon="1.8933">
        <ele>151</ele>
        <time>2024-08-30T13:19:59.905Z</time>
      </trkpt>
      <trkpt lat="44.85807" lon="1.89347">
        <ele>150.9</ele>
        <time>2024-08-30T13:20:13.991Z</time>
      </trkpt>
      <trkpt lat="44.85807" lon="1.89353">
        <ele>150.9</ele>
        <time>2024-08-30T13:20:19.072Z</time>
      </trkpt>
      <trkpt lat="44.85809" lon="1.8937">
        <ele>150.9</ele>
        <time>2024-08-30T13:20:33.667Z</time>
      </trkpt>
      <trkpt lat="44.85809" lon="1.89385">
        <ele>150.9</ele>
        <time>2024-08-30T13:20:46.370Z</time>
      </trkpt>
      <trkpt lat="44.8581" lon="1.89396">
        <ele>150.8</ele>
        <time>2024-08-30T13:20:55.405Z</time>
      </trkpt>
      <trkpt lat="44.85811" lon="1.89405">
        <ele>150.8</ele>
        <time>2024-08-30T13:21:03.120Z</time>
      </trkpt>
      <trkpt lat="44.85812" lon="1.89414">
        <ele>150.8</ele>
        <time>2024-08-30T13:21:10.835Z</time>
      </trkpt>
      <trkpt lat="44.85808" lon="1.89435">
        <ele>150.3</ele>
        <time>2024-08-30T13:21:27.534Z</time>
      </trkpt>
      <trkpt lat="44.85805" lon="1.89449">
        <ele>150</ele>
        <time>2024-08-30T13:21:38.883Z</time>
      </trkpt>
      <trkpt lat="44.85801" lon="1.89473">
        <ele>150.3</ele>
        <time>2024-08-30T13:22:00.908Z</time>
      </trkpt>
      <trkpt lat="44.85799" lon="1.89488">
        <ele>150</ele>
        <time>2024-08-30T13:22:12.794Z</time>
      </trkpt>
      <trkpt lat="44.85798" lon="1.89496">
        <ele>149.9</ele>
        <time>2024-08-30T13:22:19.320Z</time>
      </trkpt>
      <trkpt lat="44.85797" lon="1.89507">
        <ele>150.3</ele>
        <time>2024-08-30T13:22:30.360Z</time>
      </trkpt>
      <trkpt lat="44.85793" lon="1.89553">
        <ele>151.5</ele>
        <time>2024-08-30T13:23:14.395Z</time>
      </trkpt>
      <trkpt lat="44.85792" lon="1.89562">
        <ele>151.5</ele>
        <time>2024-08-30T13:23:22.111Z</time>
      </trkpt>
      <trkpt lat="44.8579" lon="1.89594">
        <ele>151.6</ele>
        <time>2024-08-30T13:23:49.688Z</time>
      </trkpt>
      <trkpt lat="44.85788" lon="1.89627">
        <ele>151.6</ele>
        <time>2024-08-30T13:24:17.738Z</time>
      </trkpt>
      <trkpt lat="44.85788" lon="1.89631">
        <ele>151.6</ele>
        <time>2024-08-30T13:24:21.126Z</time>
      </trkpt>
      <trkpt lat="44.85788" lon="1.89636">
        <ele>151.6</ele>
        <time>2024-08-30T13:24:25.360Z</time>
      </trkpt>
      <trkpt lat="44.85787" lon="1.89646">
        <ele>151.8</ele>
        <time>2024-08-30T13:24:34.695Z</time>
      </trkpt>
      <trkpt lat="44.85785" lon="1.89651">
        <ele>151.9</ele>
        <time>2024-08-30T13:24:39.946Z</time>
      </trkpt>
      <trkpt lat="44.85785" lon="1.89652">
        <ele>151.9</ele>
        <time>2024-08-30T13:24:40.793Z</time>
      </trkpt>
      <trkpt lat="44.85785" lon="1.89654">
        <ele>151.9</ele>
        <time>2024-08-30T13:24:42.486Z</time>
      </trkpt>
      <trkpt lat="44.85785" lon="1.89656">
        <ele>151.9</ele>
        <time>2024-08-30T13:24:44.180Z</time>
      </trkpt>
      <trkpt lat="44.85786" lon="1.89661">
        <ele>151.9</ele>
        <time>2024-08-30T13:24:48.580Z</time>
      </trkpt>
      <trkpt lat="44.85787" lon="1.89664">
        <ele>152</ele>
        <time>2024-08-30T13:24:51.792Z</time>
      </trkpt>
      <trkpt lat="44.85786" lon="1.89667">
        <ele>152</ele>
        <time>2024-08-30T13:24:54.600Z</time>
      </trkpt>
      <trkpt lat="44.85784" lon="1.89679">
        <ele>152</ele>
        <time>2024-08-30T13:25:05.040Z</time>
      </trkpt>
      <trkpt lat="44.85783" lon="1.89692">
        <ele>152</ele>
        <time>2024-08-30T13:25:16.114Z</time>
      </trkpt>
      <trkpt lat="44.85783" lon="1.89711">
        <ele>152.5</ele>
        <time>2024-08-30T13:25:34.202Z</time>
      </trkpt>
      <trkpt lat="44.85785" lon="1.89716">
        <ele>152.6</ele>
        <time>2024-08-30T13:25:39.452Z</time>
      </trkpt>
      <trkpt lat="44.85788" lon="1.89721">
        <ele>152.6</ele>
        <time>2024-08-30T13:25:45.000Z</time>
        <extensions>
          <visugpx:TrkExtension xmlns:visugpx="https://www.visugpx.com/editgpx/">
            <visugpx:node>6</visugpx:node>
            </visugpx:TrkExtension>
        </extensions>
      </trkpt>
    </trkseg>
  </trk>
</gpx>